sensor_id;sensor_type;location;lat;lon;timestamp;temperature;humidity
28837;DHT22;50669;50.982;11.022;2022-07-19T00:02:21;22.30;58.70
28837;DHT22;50669;50.982;11.022;2022-07-19T00:04:47;22.30;58.80
28837;DHT22;50669;50.982;11.022;2022-07-19T00:07:12;22.30;58.80
28837;DHT22;50669;50.982;11.022;2022-07-19T00:09:38;22.20;59.00
28837;DHT22;50669;50.982;11.022;2022-07-19T00:12:06;22.20;59.10
28837;DHT22;50669;50.982;11.022;2022-07-19T00:14:38;22.20;59.60
28837;DHT22;50669;50.982;11.022;2022-07-19T00:17:06;22.10;59.50
28837;DHT22;50669;50.982;11.022;2022-07-19T00:19:32;22.00;59.70
28837;DHT22;50669;50.982;11.022;2022-07-19T00:21:58;21.90;59.90
28837;DHT22;50669;50.982;11.022;2022-07-19T00:24:23;21.90;60.10
28837;DHT22;50669;50.982;11.022;2022-07-19T00:26:49;21.80;60.40
28837;DHT22;50669;50.982;11.022;2022-07-19T00:29:14;21.80;60.50
28837;DHT22;50669;50.982;11.022;2022-07-19T00:31:40;21.70;60.60
28837;DHT22;50669;50.982;11.022;2022-07-19T00:34:06;21.70;60.80
28837;DHT22;50669;50.982;11.022;2022-07-19T00:36:31;21.60;61.00
28837;DHT22;50669;50.982;11.022;2022-07-19T00:38:57;21.60;61.50
28837;DHT22;50669;50.982;11.022;2022-07-19T00:41:27;21.50;61.50
28837;DHT22;50669;50.982;11.022;2022-07-19T00:43:56;21.50;61.40
28837;DHT22;50669;50.982;11.022;2022-07-19T00:46:22;21.50;61.70
28837;DHT22;50669;50.982;11.022;2022-07-19T00:48:51;21.40;62.50
28837;DHT22;50669;50.982;11.022;2022-07-19T00:51:20;21.40;62.60
28837;DHT22;50669;50.982;11.022;2022-07-19T00:53:46;21.30;62.40
28837;DHT22;50669;50.982;11.022;2022-07-19T00:56:14;21.30;62.90
28837;DHT22;50669;50.982;11.022;2022-07-19T00:58:41;21.20;63.40
28837;DHT22;50669;50.982;11.022;2022-07-19T01:01:09;21.20;63.50
28837;DHT22;50669;50.982;11.022;2022-07-19T01:03:37;21.10;64.00
28837;DHT22;50669;50.982;11.022;2022-07-19T01:06:07;21.10;64.20
28837;DHT22;50669;50.982;11.022;2022-07-19T01:08:33;21.00;64.10
28837;DHT22;50669;50.982;11.022;2022-07-19T01:11:00;20.90;63.90
28837;DHT22;50669;50.982;11.022;2022-07-19T01:13:27;20.90;64.80
28837;DHT22;50669;50.982;11.022;2022-07-19T01:15:53;20.80;64.90
28837;DHT22;50669;50.982;11.022;2022-07-19T01:18:19;20.70;65.40
28837;DHT22;50669;50.982;11.022;2022-07-19T01:20:45;20.70;66.00
28837;DHT22;50669;50.982;11.022;2022-07-19T01:23:11;20.60;66.50
28837;DHT22;50669;50.982;11.022;2022-07-19T01:25:37;20.50;67.10
28837;DHT22;50669;50.982;11.022;2022-07-19T01:28:06;20.30;67.50
28837;DHT22;50669;50.982;11.022;2022-07-19T01:30:32;20.30;67.60
28837;DHT22;50669;50.982;11.022;2022-07-19T01:32:58;20.20;67.80
28837;DHT22;50669;50.982;11.022;2022-07-19T01:35:24;20.20;67.90
28837;DHT22;50669;50.982;11.022;2022-07-19T01:37:51;20.10;67.80
28837;DHT22;50669;50.982;11.022;2022-07-19T01:40:17;20.10;68.20
28837;DHT22;50669;50.982;11.022;2022-07-19T01:42:50;20.10;68.30
28837;DHT22;50669;50.982;11.022;2022-07-19T01:45:17;20.10;68.40
28837;DHT22;50669;50.982;11.022;2022-07-19T01:47:43;20.00;69.00
28837;DHT22;50669;50.982;11.022;2022-07-19T01:50:11;20.00;68.50
28837;DHT22;50669;50.982;11.022;2022-07-19T01:52:39;19.90;68.80
28837;DHT22;50669;50.982;11.022;2022-07-19T01:55:05;19.80;69.00
28837;DHT22;50669;50.982;11.022;2022-07-19T01:57:31;19.80;68.90
28837;DHT22;50669;50.982;11.022;2022-07-19T02:00:00;19.70;68.90
28837;DHT22;50669;50.982;11.022;2022-07-19T02:02:28;19.70;69.20
28837;DHT22;50669;50.982;11.022;2022-07-19T02:04:58;19.60;69.50
28837;DHT22;50669;50.982;11.022;2022-07-19T02:07:23;19.60;69.80
28837;DHT22;50669;50.982;11.022;2022-07-19T02:09:49;19.50;70.20
28837;DHT22;50669;50.982;11.022;2022-07-19T02:12:14;19.50;70.50
28837;DHT22;50669;50.982;11.022;2022-07-19T02:14:40;19.40;70.40
28837;DHT22;50669;50.982;11.022;2022-07-19T02:17:06;19.40;70.50
28837;DHT22;50669;50.982;11.022;2022-07-19T02:19:31;19.40;70.20
28837;DHT22;50669;50.982;11.022;2022-07-19T02:21:57;19.40;70.70
28837;DHT22;50669;50.982;11.022;2022-07-19T02:24:22;19.30;71.10
28837;DHT22;50669;50.982;11.022;2022-07-19T02:26:53;19.30;71.00
28837;DHT22;50669;50.982;11.022;2022-07-19T02:29:19;19.30;71.00
28837;DHT22;50669;50.982;11.022;2022-07-19T02:31:44;19.20;71.50
28837;DHT22;50669;50.982;11.022;2022-07-19T02:34:10;19.20;71.80
28837;DHT22;50669;50.982;11.022;2022-07-19T02:36:36;19.10;72.10
28837;DHT22;50669;50.982;11.022;2022-07-19T02:39:04;19.00;72.50
28837;DHT22;50669;50.982;11.022;2022-07-19T02:41:30;19.00;72.60
28837;DHT22;50669;50.982;11.022;2022-07-19T02:43:57;19.00;72.50
28837;DHT22;50669;50.982;11.022;2022-07-19T02:46:23;18.90;72.50
28837;DHT22;50669;50.982;11.022;2022-07-19T02:48:49;18.90;72.90
28837;DHT22;50669;50.982;11.022;2022-07-19T02:51:16;18.90;73.30
28837;DHT22;50669;50.982;11.022;2022-07-19T02:53:42;18.90;73.80
28837;DHT22;50669;50.982;11.022;2022-07-19T02:56:15;18.90;73.40
28837;DHT22;50669;50.982;11.022;2022-07-19T02:58:43;18.80;72.90
28837;DHT22;50669;50.982;11.022;2022-07-19T03:01:09;18.80;72.70
28837;DHT22;50669;50.982;11.022;2022-07-19T03:03:35;18.80;72.50
28837;DHT22;50669;50.982;11.022;2022-07-19T03:06:10;18.80;72.60
28837;DHT22;50669;50.982;11.022;2022-07-19T03:08:36;18.80;72.90
28837;DHT22;50669;50.982;11.022;2022-07-19T03:11:05;18.80;72.90
28837;DHT22;50669;50.982;11.022;2022-07-19T03:13:30;18.70;73.20
28837;DHT22;50669;50.982;11.022;2022-07-19T03:15:56;18.70;73.40
28837;DHT22;50669;50.982;11.022;2022-07-19T03:18:21;18.70;73.50
28837;DHT22;50669;50.982;11.022;2022-07-19T03:20:47;18.60;73.50
28837;DHT22;50669;50.982;11.022;2022-07-19T03:23:17;18.60;73.20
28837;DHT22;50669;50.982;11.022;2022-07-19T03:25:43;18.60;73.20
28837;DHT22;50669;50.982;11.022;2022-07-19T03:28:08;18.70;73.30
28837;DHT22;50669;50.982;11.022;2022-07-19T03:30:34;18.60;73.10
28837;DHT22;50669;50.982;11.022;2022-07-19T03:33:02;18.60;73.00
28837;DHT22;50669;50.982;11.022;2022-07-19T03:35:28;18.60;73.20
28837;DHT22;50669;50.982;11.022;2022-07-19T03:37:54;18.60;73.60
28837;DHT22;50669;50.982;11.022;2022-07-19T03:40:19;18.60;73.50
28837;DHT22;50669;50.982;11.022;2022-07-19T03:42:45;18.50;73.50
28837;DHT22;50669;50.982;11.022;2022-07-19T03:45:13;18.50;73.40
28837;DHT22;50669;50.982;11.022;2022-07-19T03:47:41;18.60;73.40
28837;DHT22;50669;50.982;11.022;2022-07-19T03:50:06;18.60;73.00
28837;DHT22;50669;50.982;11.022;2022-07-19T03:52:32;18.60;73.50
28837;DHT22;50669;50.982;11.022;2022-07-19T03:55:00;18.60;73.90
28837;DHT22;50669;50.982;11.022;2022-07-19T03:57:28;18.70;73.50
28837;DHT22;50669;50.982;11.022;2022-07-19T03:59:54;18.70;73.10
28837;DHT22;50669;50.982;11.022;2022-07-19T04:02:19;18.70;73.40
28837;DHT22;50669;50.982;11.022;2022-07-19T04:04:47;18.70;73.30
28837;DHT22;50669;50.982;11.022;2022-07-19T04:07:15;18.80;72.80
28837;DHT22;50669;50.982;11.022;2022-07-19T04:09:45;18.80;72.50
28837;DHT22;50669;50.982;11.022;2022-07-19T04:12:11;19.00;72.50
28837;DHT22;50669;50.982;11.022;2022-07-19T04:14:36;19.00;72.50
28837;DHT22;50669;50.982;11.022;2022-07-19T04:17:04;19.00;72.30
28837;DHT22;50669;50.982;11.022;2022-07-19T04:19:35;19.10;72.40
28837;DHT22;50669;50.982;11.022;2022-07-19T04:22:05;19.10;72.40
28837;DHT22;50669;50.982;11.022;2022-07-19T04:24:31;19.10;72.70
28837;DHT22;50669;50.982;11.022;2022-07-19T04:26:56;19.00;73.00
28837;DHT22;50669;50.982;11.022;2022-07-19T04:29:22;19.00;73.40
28837;DHT22;50669;50.982;11.022;2022-07-19T04:31:48;18.90;73.40
28837;DHT22;50669;50.982;11.022;2022-07-19T04:34:13;18.90;73.80
28837;DHT22;50669;50.982;11.022;2022-07-19T04:36:41;18.90;73.90
28837;DHT22;50669;50.982;11.022;2022-07-19T04:39:07;18.90;74.10
28837;DHT22;50669;50.982;11.022;2022-07-19T04:41:35;18.90;74.20
28837;DHT22;50669;50.982;11.022;2022-07-19T04:44:01;18.90;74.30
28837;DHT22;50669;50.982;11.022;2022-07-19T04:46:29;18.90;74.20
28837;DHT22;50669;50.982;11.022;2022-07-19T04:48:57;19.10;73.80
28837;DHT22;50669;50.982;11.022;2022-07-19T04:51:25;19.10;73.80
28837;DHT22;50669;50.982;11.022;2022-07-19T04:53:53;19.20;73.80
28837;DHT22;50669;50.982;11.022;2022-07-19T04:56:21;19.30;73.40
28837;DHT22;50669;50.982;11.022;2022-07-19T04:58:49;19.50;73.10
28837;DHT22;50669;50.982;11.022;2022-07-19T05:01:16;19.60;73.00
28837;DHT22;50669;50.982;11.022;2022-07-19T05:03:42;19.60;72.70
28837;DHT22;50669;50.982;11.022;2022-07-19T05:06:10;19.80;72.50
28837;DHT22;50669;50.982;11.022;2022-07-19T05:08:36;19.80;72.40
28837;DHT22;50669;50.982;11.022;2022-07-19T05:11:04;19.90;72.50
28837;DHT22;50669;50.982;11.022;2022-07-19T05:13:30;19.90;72.50
28837;DHT22;50669;50.982;11.022;2022-07-19T05:15:56;19.90;72.40
28837;DHT22;50669;50.982;11.022;2022-07-19T05:18:24;20.00;72.40
28837;DHT22;50669;50.982;11.022;2022-07-19T05:20:49;20.10;72.30
28837;DHT22;50669;50.982;11.022;2022-07-19T05:23:15;20.30;72.20
28837;DHT22;50669;50.982;11.022;2022-07-19T05:25:41;20.40;72.00
28837;DHT22;50669;50.982;11.022;2022-07-19T05:28:09;20.40;71.80
28837;DHT22;50669;50.982;11.022;2022-07-19T05:30:34;20.50;71.60
28837;DHT22;50669;50.982;11.022;2022-07-19T05:33:02;20.60;71.60
28837;DHT22;50669;50.982;11.022;2022-07-19T05:35:30;20.60;71.50
28837;DHT22;50669;50.982;11.022;2022-07-19T05:37:56;20.80;71.30
28837;DHT22;50669;50.982;11.022;2022-07-19T05:40:24;21.00;70.90
28837;DHT22;50669;50.982;11.022;2022-07-19T05:42:52;21.00;71.10
28837;DHT22;50669;50.982;11.022;2022-07-19T05:45:18;21.00;71.10
28837;DHT22;50669;50.982;11.022;2022-07-19T05:47:43;21.10;71.20
28837;DHT22;50669;50.982;11.022;2022-07-19T05:50:09;21.20;71.10
28837;DHT22;50669;50.982;11.022;2022-07-19T05:52:37;21.30;70.90
28837;DHT22;50669;50.982;11.022;2022-07-19T05:55:04;21.40;70.90
28837;DHT22;50669;50.982;11.022;2022-07-19T05:57:29;21.40;70.60
28837;DHT22;50669;50.982;11.022;2022-07-19T05:59:55;21.50;70.50
28837;DHT22;50669;50.982;11.022;2022-07-19T06:02:23;21.60;70.20
28837;DHT22;50669;50.982;11.022;2022-07-19T06:04:51;21.80;70.00
28837;DHT22;50669;50.982;11.022;2022-07-19T06:07:17;21.90;69.80
28837;DHT22;50669;50.982;11.022;2022-07-19T06:09:43;21.90;69.50
28837;DHT22;50669;50.982;11.022;2022-07-19T06:12:08;22.10;70.10
28837;DHT22;50669;50.982;11.022;2022-07-19T06:14:34;22.20;69.20
28837;DHT22;50669;50.982;11.022;2022-07-19T06:17:00;22.20;68.90
28837;DHT22;50669;50.982;11.022;2022-07-19T06:19:25;22.40;68.90
28837;DHT22;50669;50.982;11.022;2022-07-19T06:21:54;22.60;68.40
28837;DHT22;50669;50.982;11.022;2022-07-19T06:24:22;22.80;68.00
28837;DHT22;50669;50.982;11.022;2022-07-19T06:26:48;23.00;67.60
28837;DHT22;50669;50.982;11.022;2022-07-19T06:29:13;23.10;67.10
28837;DHT22;50669;50.982;11.022;2022-07-19T06:31:39;23.20;66.80
28837;DHT22;50669;50.982;11.022;2022-07-19T06:34:04;23.20;66.80
28837;DHT22;50669;50.982;11.022;2022-07-19T06:36:30;23.30;66.80
28837;DHT22;50669;50.982;11.022;2022-07-19T06:38:58;23.40;66.60
28837;DHT22;50669;50.982;11.022;2022-07-19T06:41:24;23.50;66.40
28837;DHT22;50669;50.982;11.022;2022-07-19T06:43:51;23.70;65.80
28837;DHT22;50669;50.982;11.022;2022-07-19T06:46:17;23.90;65.30
28837;DHT22;50669;50.982;11.022;2022-07-19T06:48:43;24.10;64.80
28837;DHT22;50669;50.982;11.022;2022-07-19T06:51:08;24.30;64.30
28837;DHT22;50669;50.982;11.022;2022-07-19T06:53:34;24.40;63.90
28837;DHT22;50669;50.982;11.022;2022-07-19T06:56:03;24.60;63.50
28837;DHT22;50669;50.982;11.022;2022-07-19T06:58:29;24.70;63.30
28837;DHT22;50669;50.982;11.022;2022-07-19T07:00:55;24.90;63.00
28837;DHT22;50669;50.982;11.022;2022-07-19T07:03:23;25.10;62.70
28837;DHT22;50669;50.982;11.022;2022-07-19T07:05:49;25.20;62.20
28837;DHT22;50669;50.982;11.022;2022-07-19T07:08:14;25.30;61.90
28837;DHT22;50669;50.982;11.022;2022-07-19T07:10:40;25.50;61.30
28837;DHT22;50669;50.982;11.022;2022-07-19T07:13:06;25.60;60.70
28837;DHT22;50669;50.982;11.022;2022-07-19T07:15:32;25.70;60.20
28837;DHT22;50669;50.982;11.022;2022-07-19T07:17:57;25.90;59.50
28837;DHT22;50669;50.982;11.022;2022-07-19T07:20:23;26.00;58.40
28837;DHT22;50669;50.982;11.022;2022-07-19T07:22:50;26.10;58.00
28837;DHT22;50669;50.982;11.022;2022-07-19T07:25:16;26.30;57.40
28837;DHT22;50669;50.982;11.022;2022-07-19T07:27:42;26.30;57.20
28837;DHT22;50669;50.982;11.022;2022-07-19T07:30:08;26.30;56.60
28837;DHT22;50669;50.982;11.022;2022-07-19T07:32:36;26.30;56.80
28837;DHT22;50669;50.982;11.022;2022-07-19T07:35:02;26.30;57.00
28837;DHT22;50669;50.982;11.022;2022-07-19T07:37:28;26.50;56.10
28837;DHT22;50669;50.982;11.022;2022-07-19T07:39:56;26.60;55.40
28837;DHT22;50669;50.982;11.022;2022-07-19T07:42:22;26.80;54.80
28837;DHT22;50669;50.982;11.022;2022-07-19T07:44:52;26.80;55.00
28837;DHT22;50669;50.982;11.022;2022-07-19T07:47:20;27.10;54.90
28837;DHT22;50669;50.982;11.022;2022-07-19T07:49:46;27.20;54.20
28837;DHT22;50669;50.982;11.022;2022-07-19T07:52:15;27.40;54.30
28837;DHT22;50669;50.982;11.022;2022-07-19T07:54:44;27.40;53.30
28837;DHT22;50669;50.982;11.022;2022-07-19T07:57:10;27.40;53.60
28837;DHT22;50669;50.982;11.022;2022-07-19T07:59:35;27.50;53.90
28837;DHT22;50669;50.982;11.022;2022-07-19T08:02:01;27.80;53.80
28837;DHT22;50669;50.982;11.022;2022-07-19T08:04:27;27.90;53.70
28837;DHT22;50669;50.982;11.022;2022-07-19T08:06:53;28.10;53.00
28837;DHT22;50669;50.982;11.022;2022-07-19T08:09:21;28.20;52.80
28837;DHT22;50669;50.982;11.022;2022-07-19T08:11:47;28.30;52.40
28837;DHT22;50669;50.982;11.022;2022-07-19T08:14:13;28.30;52.20
28837;DHT22;50669;50.982;11.022;2022-07-19T08:16:41;28.50;51.80
28837;DHT22;50669;50.982;11.022;2022-07-19T08:19:06;28.50;51.50
28837;DHT22;50669;50.982;11.022;2022-07-19T08:21:32;28.50;51.70
28837;DHT22;50669;50.982;11.022;2022-07-19T08:23:58;28.60;51.80
28837;DHT22;50669;50.982;11.022;2022-07-19T08:26:23;28.80;51.50
28837;DHT22;50669;50.982;11.022;2022-07-19T08:28:49;28.90;50.80
28837;DHT22;50669;50.982;11.022;2022-07-19T08:31:17;29.00;50.80
28837;DHT22;50669;50.982;11.022;2022-07-19T08:33:43;29.20;50.30
28837;DHT22;50669;50.982;11.022;2022-07-19T08:36:08;29.20;49.70
28837;DHT22;50669;50.982;11.022;2022-07-19T08:38:36;29.10;49.40
28837;DHT22;50669;50.982;11.022;2022-07-19T08:41:04;29.10;49.50
28837;DHT22;50669;50.982;11.022;2022-07-19T08:43:30;29.30;50.00
28837;DHT22;50669;50.982;11.022;2022-07-19T08:46:01;29.50;49.30
28837;DHT22;50669;50.982;11.022;2022-07-19T08:48:30;29.50;48.90
28837;DHT22;50669;50.982;11.022;2022-07-19T08:50:59;29.70;48.80
28837;DHT22;50669;50.982;11.022;2022-07-19T08:53:29;29.70;49.20
28837;DHT22;50669;50.982;11.022;2022-07-19T08:55:55;29.70;48.30
28837;DHT22;50669;50.982;11.022;2022-07-19T08:58:21;29.80;49.10
28837;DHT22;50669;50.982;11.022;2022-07-19T09:00:46;30.10;48.90
28837;DHT22;50669;50.982;11.022;2022-07-19T09:03:12;30.30;48.10
28837;DHT22;50669;50.982;11.022;2022-07-19T09:05:43;30.40;48.20
28837;DHT22;50669;50.982;11.022;2022-07-19T09:08:13;30.50;47.10
28837;DHT22;50669;50.982;11.022;2022-07-19T09:10:43;30.50;46.40
28837;DHT22;50669;50.982;11.022;2022-07-19T09:13:16;30.60;47.20
28837;DHT22;50669;50.982;11.022;2022-07-19T09:15:51;30.70;46.70
28837;DHT22;50669;50.982;11.022;2022-07-19T09:18:30;30.80;45.90
28837;DHT22;50669;50.982;11.022;2022-07-19T09:21:03;30.80;45.50
28837;DHT22;50669;50.982;11.022;2022-07-19T09:23:30;31.00;45.70
28837;DHT22;50669;50.982;11.022;2022-07-19T09:26:00;31.00;45.40
28837;DHT22;50669;50.982;11.022;2022-07-19T09:28:32;31.20;46.00
28837;DHT22;50669;50.982;11.022;2022-07-19T09:30:59;31.30;45.20
28837;DHT22;50669;50.982;11.022;2022-07-19T09:33:34;31.50;44.00
28837;DHT22;50669;50.982;11.022;2022-07-19T09:36:02;31.50;44.20
28837;DHT22;50669;50.982;11.022;2022-07-19T09:38:35;31.70;44.50
28837;DHT22;50669;50.982;11.022;2022-07-19T09:46:41;32.00;43.40
28837;DHT22;50669;50.982;11.022;2022-07-19T09:49:13;31.90;42.60
28837;DHT22;50669;50.982;11.022;2022-07-19T09:51:51;31.70;42.90
28837;DHT22;50669;50.982;11.022;2022-07-19T09:54:24;31.50;43.30
28837;DHT22;50669;50.982;11.022;2022-07-19T09:56:50;31.60;43.70
28837;DHT22;50669;50.982;11.022;2022-07-19T09:59:19;31.70;43.50
28837;DHT22;50669;50.982;11.022;2022-07-19T10:01:51;31.90;43.20
28837;DHT22;50669;50.982;11.022;2022-07-19T10:04:22;32.00;43.30
28837;DHT22;50669;50.982;11.022;2022-07-19T10:06:52;32.00;42.70
28837;DHT22;50669;50.982;11.022;2022-07-19T10:09:19;32.10;42.50
28837;DHT22;50669;50.982;11.022;2022-07-19T10:11:45;32.20;42.20
28837;DHT22;50669;50.982;11.022;2022-07-19T10:14:12;32.40;42.20
28837;DHT22;50669;50.982;11.022;2022-07-19T10:16:45;32.50;42.10
28837;DHT22;50669;50.982;11.022;2022-07-19T10:19:41;32.60;41.80
28837;DHT22;50669;50.982;11.022;2022-07-19T10:22:16;32.70;41.90
28837;DHT22;50669;50.982;11.022;2022-07-19T10:27:15;32.90;41.20
28837;DHT22;50669;50.982;11.022;2022-07-19T10:29:45;33.00;41.10
28837;DHT22;50669;50.982;11.022;2022-07-19T10:32:12;33.00;41.30
28837;DHT22;50669;50.982;11.022;2022-07-19T10:34:39;33.00;41.20
28837;DHT22;50669;50.982;11.022;2022-07-19T10:37:06;33.10;41.20
28837;DHT22;50669;50.982;11.022;2022-07-19T10:39:39;33.30;41.00
28837;DHT22;50669;50.982;11.022;2022-07-19T10:42:21;33.40;41.00
28837;DHT22;50669;50.982;11.022;2022-07-19T10:50:09;33.50;40.00
28837;DHT22;50669;50.982;11.022;2022-07-19T10:52:37;33.50;39.70
28837;DHT22;50669;50.982;11.022;2022-07-19T11:00:40;33.40;39.00
28837;DHT22;50669;50.982;11.022;2022-07-19T11:05:53;33.40;39.90
28837;DHT22;50669;50.982;11.022;2022-07-19T11:11:10;33.70;38.90
28837;DHT22;50669;50.982;11.022;2022-07-19T11:13:38;33.60;39.30
28837;DHT22;50669;50.982;11.022;2022-07-19T11:16:05;33.60;39.30
28837;DHT22;50669;50.982;11.022;2022-07-19T11:18:31;33.60;39.20
28837;DHT22;50669;50.982;11.022;2022-07-19T11:21:02;33.80;39.40
28837;DHT22;50669;50.982;11.022;2022-07-19T11:23:29;34.00;38.90
28837;DHT22;50669;50.982;11.022;2022-07-19T11:26:06;34.00;38.40
28837;DHT22;50669;50.982;11.022;2022-07-19T11:28:33;34.00;38.60
28837;DHT22;50669;50.982;11.022;2022-07-19T11:30:58;34.20;38.90
28837;DHT22;50669;50.982;11.022;2022-07-19T11:33:27;34.30;38.60
28837;DHT22;50669;50.982;11.022;2022-07-19T11:35:58;34.30;38.00
28837;DHT22;50669;50.982;11.022;2022-07-19T11:38:43;34.30;38.60
28837;DHT22;50669;50.982;11.022;2022-07-19T11:41:19;34.20;38.00
28837;DHT22;50669;50.982;11.022;2022-07-19T11:43:54;34.20;38.80
28837;DHT22;50669;50.982;11.022;2022-07-19T11:46:22;34.30;38.60
28837;DHT22;50669;50.982;11.022;2022-07-19T11:48:49;34.50;38.20
28837;DHT22;50669;50.982;11.022;2022-07-19T11:51:19;34.50;38.10
28837;DHT22;50669;50.982;11.022;2022-07-19T11:53:49;34.60;38.20
28837;DHT22;50669;50.982;11.022;2022-07-19T11:56:20;34.50;37.60
28837;DHT22;50669;50.982;11.022;2022-07-19T11:58:46;34.60;38.70
28837;DHT22;50669;50.982;11.022;2022-07-19T12:01:12;35.00;38.30
28837;DHT22;50669;50.982;11.022;2022-07-19T12:03:38;35.30;37.80
28837;DHT22;50669;50.982;11.022;2022-07-19T12:06:06;36.30;37.10
28837;DHT22;50669;50.982;11.022;2022-07-19T12:08:42;37.40;36.10
28837;DHT22;50669;50.982;11.022;2022-07-19T12:13:45;40.20;33.70
28837;DHT22;50669;50.982;11.022;2022-07-19T12:16:14;41.50;33.00
28837;DHT22;50669;50.982;11.022;2022-07-19T12:23:44;44.60;31.20
28837;DHT22;50669;50.982;11.022;2022-07-19T12:26:29;44.20;29.70
28837;DHT22;50669;50.982;11.022;2022-07-19T12:28:55;43.80;30.00
28837;DHT22;50669;50.982;11.022;2022-07-19T12:31:21;43.90;29.70
28837;DHT22;50669;50.982;11.022;2022-07-19T12:33:49;43.60;29.80
28837;DHT22;50669;50.982;11.022;2022-07-19T12:36:33;43.50;30.50
28837;DHT22;50669;50.982;11.022;2022-07-19T12:39:01;43.90;30.20
28837;DHT22;50669;50.982;11.022;2022-07-19T12:41:29;45.30;29.30
28837;DHT22;50669;50.982;11.022;2022-07-19T12:43:55;46.60;29.20
28837;DHT22;50669;50.982;11.022;2022-07-19T12:46:23;47.80;28.50
28837;DHT22;50669;50.982;11.022;2022-07-19T12:48:49;48.70;28.80
28837;DHT22;50669;50.982;11.022;2022-07-19T12:51:17;49.70;28.10
28837;DHT22;50669;50.982;11.022;2022-07-19T12:53:45;49.70;27.20
28837;DHT22;50669;50.982;11.022;2022-07-19T12:56:10;50.20;27.30
28837;DHT22;50669;50.982;11.022;2022-07-19T12:58:36;50.40;26.90
28837;DHT22;50669;50.982;11.022;2022-07-19T13:01:20;50.30;26.80
28837;DHT22;50669;50.982;11.022;2022-07-19T13:03:45;50.20;27.30
28837;DHT22;50669;50.982;11.022;2022-07-19T13:06:15;50.30;26.50
28837;DHT22;50669;50.982;11.022;2022-07-19T13:08:41;49.50;27.20
28837;DHT22;50669;50.982;11.022;2022-07-19T13:11:07;48.80;27.20
28837;DHT22;50669;50.982;11.022;2022-07-19T13:13:32;48.10;27.70
28837;DHT22;50669;50.982;11.022;2022-07-19T13:16:00;46.50;28.40
28837;DHT22;50669;50.982;11.022;2022-07-19T13:18:25;45.50;29.00
28837;DHT22;50669;50.982;11.022;2022-07-19T13:20:53;44.70;29.70
28837;DHT22;50669;50.982;11.022;2022-07-19T13:23:19;44.10;29.50
28837;DHT22;50669;50.982;11.022;2022-07-19T13:25:44;44.20;29.40
28837;DHT22;50669;50.982;11.022;2022-07-19T13:28:10;44.00;29.70
28837;DHT22;50669;50.982;11.022;2022-07-19T13:30:38;44.70;29.50
28837;DHT22;50669;50.982;11.022;2022-07-19T13:33:06;46.20;28.10
28837;DHT22;50669;50.982;11.022;2022-07-19T13:35:34;46.10;27.90
28837;DHT22;50669;50.982;11.022;2022-07-19T13:38:02;46.80;27.60
28837;DHT22;50669;50.982;11.022;2022-07-19T13:40:28;45.80;27.90
28837;DHT22;50669;50.982;11.022;2022-07-19T13:42:57;45.00;28.40
28837;DHT22;50669;50.982;11.022;2022-07-19T13:45:25;44.10;28.80
28837;DHT22;50669;50.982;11.022;2022-07-19T13:47:51;43.50;29.40
28837;DHT22;50669;50.982;11.022;2022-07-19T13:50:16;43.00;29.70
28837;DHT22;50669;50.982;11.022;2022-07-19T13:52:42;42.40;30.00
28837;DHT22;50669;50.982;11.022;2022-07-19T13:55:08;41.80;30.50
28837;DHT22;50669;50.982;11.022;2022-07-19T13:57:34;41.10;30.30
28837;DHT22;50669;50.982;11.022;2022-07-19T13:59:59;40.50;31.40
28837;DHT22;50669;50.982;11.022;2022-07-19T14:02:27;40.30;31.00
28837;DHT22;50669;50.982;11.022;2022-07-19T14:04:55;40.30;31.60
28837;DHT22;50669;50.982;11.022;2022-07-19T14:07:21;40.90;31.50
28837;DHT22;50669;50.982;11.022;2022-07-19T14:09:49;41.80;30.50
28837;DHT22;50669;50.982;11.022;2022-07-19T14:12:14;42.10;30.20
28837;DHT22;50669;50.982;11.022;2022-07-19T14:14:42;43.20;29.60
28837;DHT22;50669;50.982;11.022;2022-07-19T14:17:08;43.50;29.10
28837;DHT22;50669;50.982;11.022;2022-07-19T14:19:38;45.10;29.20
28837;DHT22;50669;50.982;11.022;2022-07-19T14:22:08;46.90;28.40
28837;DHT22;50669;50.982;11.022;2022-07-19T14:24:34;47.70;27.30
28837;DHT22;50669;50.982;11.022;2022-07-19T14:27:00;47.30;27.30
28837;DHT22;50669;50.982;11.022;2022-07-19T14:29:25;47.30;27.40
28837;DHT22;50669;50.982;11.022;2022-07-19T14:31:51;47.20;27.40
28837;DHT22;50669;50.982;11.022;2022-07-19T14:34:17;47.60;27.50
28837;DHT22;50669;50.982;11.022;2022-07-19T14:36:42;48.90;27.20
28837;DHT22;50669;50.982;11.022;2022-07-19T14:39:10;49.30;26.50
28837;DHT22;50669;50.982;11.022;2022-07-19T14:41:36;49.30;26.40
28837;DHT22;50669;50.982;11.022;2022-07-19T14:44:04;49.50;26.30
28837;DHT22;50669;50.982;11.022;2022-07-19T14:46:31;49.60;26.10
28837;DHT22;50669;50.982;11.022;2022-07-19T14:48:58;50.20;26.20
28837;DHT22;50669;50.982;11.022;2022-07-19T14:51:24;50.90;26.40
28837;DHT22;50669;50.982;11.022;2022-07-19T14:53:50;50.70;26.10
28837;DHT22;50669;50.982;11.022;2022-07-19T14:56:15;50.40;25.80
28837;DHT22;50669;50.982;11.022;2022-07-19T14:58:41;49.60;26.10
28837;DHT22;50669;50.982;11.022;2022-07-19T15:01:09;49.60;26.40
28837;DHT22;50669;50.982;11.022;2022-07-19T15:03:38;49.10;26.20
28837;DHT22;50669;50.982;11.022;2022-07-19T15:06:03;49.10;26.10
28837;DHT22;50669;50.982;11.022;2022-07-19T15:08:31;48.30;26.60
28837;DHT22;50669;50.982;11.022;2022-07-19T15:10:59;46.30;27.20
28837;DHT22;50669;50.982;11.022;2022-07-19T15:13:24;45.10;28.30
28837;DHT22;50669;50.982;11.022;2022-07-19T15:15:52;44.20;28.80
28837;DHT22;50669;50.982;11.022;2022-07-19T15:18:18;43.30;29.20
28837;DHT22;50669;50.982;11.022;2022-07-19T15:20:46;42.40;29.50
28837;DHT22;50669;50.982;11.022;2022-07-19T15:23:12;41.60;29.80
28837;DHT22;50669;50.982;11.022;2022-07-19T15:25:37;41.20;30.40
28837;DHT22;50669;50.982;11.022;2022-07-19T15:28:05;40.80;30.50
28837;DHT22;50669;50.982;11.022;2022-07-19T15:30:31;40.50;30.80
28837;DHT22;50669;50.982;11.022;2022-07-19T15:32:57;40.00;31.00
28837;DHT22;50669;50.982;11.022;2022-07-19T15:35:22;39.60;31.40
28837;DHT22;50669;50.982;11.022;2022-07-19T15:37:48;39.20;31.50
28837;DHT22;50669;50.982;11.022;2022-07-19T15:40:16;39.00;32.10
28837;DHT22;50669;50.982;11.022;2022-07-19T15:42:48;38.70;32.20
28837;DHT22;50669;50.982;11.022;2022-07-19T15:45:15;38.60;32.30
28837;DHT22;50669;50.982;11.022;2022-07-19T15:47:42;38.30;32.90
28837;DHT22;50669;50.982;11.022;2022-07-19T15:50:12;38.10;32.80